createdAt,value
2018-11-20T00:00:11.661Z,2.40
2018-11-20T00:03:00.015Z,2.40
2018-11-20T00:06:06.647Z,2.40
2018-11-20T00:08:53.726Z,2.40
2018-11-20T00:11:40.759Z,2.30
2018-11-20T00:14:32.340Z,2.30
2018-11-20T00:17:26.520Z,2.30
2018-11-20T00:20:13.451Z,2.30
2018-11-20T00:23:04.465Z,2.30
2018-11-20T00:25:53.121Z,2.20
2018-11-20T00:28:41.952Z,2.20
2018-11-20T00:31:28.976Z,2.20
2018-11-20T00:34:06.394Z,2.20
2018-11-20T00:36:57.535Z,2.20
2018-11-20T00:39:44.596Z,2.10
2018-11-20T00:42:31.760Z,2.20
2018-11-20T00:45:26.444Z,2.20
2018-11-20T00:48:14.810Z,2.10
2018-11-20T00:51:21.397Z,2.10
2018-11-20T00:54:21.811Z,2.10
2018-11-20T00:57:25.419Z,2.10
2018-11-20T01:00:13.813Z,2.10
2018-11-20T01:03:20.336Z,2.10
2018-11-20T01:06:18.679Z,2.20
2018-11-20T01:09:07.479Z,2.20
2018-11-20T01:11:52.929Z,2.10
2018-11-20T01:14:28.800Z,2.20
2018-11-20T01:17:15.624Z,2.20
2018-11-20T01:20:02.712Z,2.20
2018-11-20T01:22:56.879Z,2.20
2018-11-20T01:25:44.490Z,2.10
2018-11-20T01:28:33.677Z,2.20
2018-11-20T01:31:20.531Z,2.20
2018-11-20T01:34:23.955Z,2.20
2018-11-20T01:37:21.306Z,2.10
2018-11-20T01:40:09.612Z,2.10
2018-11-20T01:42:56.916Z,2.10
2018-11-20T01:45:38.744Z,2.10
2018-11-20T01:48:26.068Z,2.10
2018-11-20T01:51:13.385Z,2.10
2018-11-20T01:54:07.896Z,2.10
2018-11-20T01:56:58.864Z,2.10
2018-11-20T01:59:47.402Z,2.10
2018-11-20T02:02:36.126Z,2.10
2018-11-20T02:05:23.658Z,2.00
2018-11-20T02:08:10.680Z,2.00
2018-11-20T02:11:17.181Z,2.10
2018-11-20T02:14:27.552Z,2.10
2018-11-20T02:17:30.416Z,2.20
2018-11-20T02:20:21.458Z,2.10
2018-11-20T02:23:09.840Z,2.10
2018-11-20T02:26:01.018Z,2.20
2018-11-20T02:28:49.425Z,2.20
2018-11-20T02:31:43.871Z,2.20
2018-11-20T02:34:41.245Z,2.30
2018-11-20T02:37:25.170Z,2.20
2018-11-20T02:40:12.314Z,2.30
2018-11-20T02:43:03.371Z,2.20
2018-11-20T02:46:03.941Z,2.30
2018-11-20T02:49:07.557Z,2.30
2018-11-20T02:52:14.425Z,2.20
2018-11-20T02:55:05.461Z,2.30
2018-11-20T02:58:00.075Z,2.40
2018-11-20T03:01:06.651Z,2.40
2018-11-20T03:03:55.130Z,2.40
2018-11-20T03:06:52.600Z,2.40
2018-11-20T03:09:46.809Z,2.40
2018-11-20T03:12:33.528Z,2.40
2018-11-20T03:15:17.972Z,2.40
2018-11-20T03:18:12.444Z,2.40
2018-11-20T03:20:58.268Z,2.50
2018-11-20T03:23:58.391Z,2.40
2018-11-20T03:26:52.962Z,2.40
2018-11-20T03:30:15.073Z,2.40
2018-11-20T03:32:53.939Z,2.40
2018-11-20T03:35:54.452Z,2.40
2018-11-20T03:38:53.240Z,2.40
2018-11-20T03:41:47.633Z,2.50
2018-11-20T03:44:23.978Z,2.40
2018-11-20T03:47:06.083Z,2.40
2018-11-20T03:50:09.853Z,2.40
2018-11-20T03:52:58.235Z,2.40
2018-11-20T03:55:56.706Z,2.40
2018-11-20T03:59:03.294Z,2.40
2018-11-20T04:01:45.798Z,2.40
2018-11-20T04:04:34.172Z,2.50
2018-11-20T04:07:25.216Z,2.40
2018-11-20T04:10:09.300Z,2.50
2018-11-20T04:13:00.490Z,2.40
2018-11-20T04:15:49.577Z,2.40
2018-11-20T04:18:37.622Z,2.40
2018-11-20T04:21:24.462Z,2.40
2018-11-20T04:24:11.863Z,2.50
2018-11-20T04:26:58.517Z,2.50
2018-11-20T04:29:46.899Z,2.40
2018-11-20T04:32:38.248Z,2.50
2018-11-20T04:35:34.198Z,2.40
2018-11-20T04:38:26.844Z,2.40
2018-11-20T04:41:07.876Z,2.40
2018-11-20T04:43:56.267Z,2.40
2018-11-20T04:46:43.504Z,2.40
2018-11-20T04:49:28.588Z,2.40
2018-11-20T04:52:25.963Z,2.40
2018-11-20T04:55:29.484Z,2.50
2018-11-20T04:58:17.004Z,2.50
2018-11-20T05:01:20.303Z,2.50
2018-11-20T05:04:02.200Z,2.50
2018-11-20T05:06:58.639Z,2.50
2018-11-20T05:09:46.064Z,2.50
2018-11-20T05:12:52.362Z,2.40
2018-11-20T05:15:43.560Z,2.40
2018-11-20T05:18:34.852Z,2.40
2018-11-20T05:21:32.347Z,2.40
2018-11-20T05:24:18.223Z,2.40
2018-11-20T05:26:58.554Z,2.50
2018-11-20T05:29:45.748Z,2.50
2018-11-20T05:32:34.147Z,2.40
2018-11-20T05:35:28.736Z,2.40
2018-11-20T05:38:06.140Z,2.40
2018-11-20T05:40:42.922Z,2.40
2018-11-20T05:43:37.938Z,2.50
2018-11-20T05:46:28.867Z,2.50
2018-11-20T05:49:15.928Z,2.50
2018-11-20T05:52:02.720Z,2.50
2018-11-20T05:54:55.145Z,2.50
2018-11-20T05:57:42.144Z,2.50
2018-11-20T06:00:32.152Z,2.50
2018-11-20T06:03:20.521Z,2.60
2018-11-20T06:06:03.337Z,2.50
2018-11-20T06:08:49.220Z,2.60
2018-11-20T06:11:49.893Z,2.70
2018-11-20T06:14:45.521Z,2.70
2018-11-20T06:17:48.907Z,2.70
2018-11-20T06:20:35.767Z,2.70
2018-11-20T06:23:23.095Z,2.70
2018-11-20T06:26:23.907Z,2.70
2018-11-20T06:29:11.120Z,2.70
2018-11-20T06:32:35.082Z,2.70
2018-11-20T06:35:34.663Z,2.70
2018-11-20T06:38:31.220Z,2.70
2018-11-20T06:41:21.850Z,2.70
2018-11-20T06:44:21.601Z,2.70
2018-11-20T06:47:27.324Z,2.80
2018-11-20T06:50:13.724Z,2.80
2018-11-20T06:53:03.948Z,2.80
2018-11-20T06:55:54.417Z,2.90
2018-11-20T06:58:41.977Z,2.90
2018-11-20T07:01:32.488Z,2.90
2018-11-20T07:04:18.798Z,2.90
2018-11-20T07:07:04.813Z,2.90
2018-11-20T07:10:07.648Z,2.90
2018-11-20T07:13:07.263Z,3.00
2018-11-20T07:15:53.944Z,2.90
2018-11-20T07:18:44.374Z,2.90
2018-11-20T07:21:20.767Z,3.00
2018-11-20T07:24:08.379Z,3.00
2018-11-20T07:27:14.252Z,3.00
2018-11-20T07:30:00.662Z,3.00
2018-11-20T07:32:48.555Z,3.00
2018-11-20T07:35:34.733Z,3.00
2018-11-20T07:38:31.876Z,3.00
2018-11-20T07:41:22.392Z,3.10
2018-11-20T07:44:19.292Z,3.10
2018-11-20T07:47:21.794Z,3.10
2018-11-20T07:50:08.027Z,3.20
2018-11-20T07:52:54.165Z,3.20
2018-11-20T07:55:50.655Z,3.10
2018-11-20T07:58:40.843Z,3.10
2018-11-20T08:01:28.397Z,3.20
2018-11-20T08:04:34.474Z,3.20
2018-11-20T08:07:22.052Z,3.20
2018-11-20T08:09:57.744Z,3.20
2018-11-20T08:12:48.231Z,3.30
2018-11-20T08:15:45.033Z,3.20
2018-11-20T08:18:29.025Z,3.30
2018-11-20T08:21:07.477Z,3.30
2018-11-20T08:23:55.062Z,3.40
2018-11-20T08:26:39.326Z,3.40
2018-11-20T08:29:24.003Z,3.50
2018-11-20T08:32:14.261Z,3.50
2018-11-20T08:35:20.529Z,3.50
2018-11-20T08:38:08.000Z,3.50
2018-11-20T08:41:11.241Z,3.60
2018-11-20T08:44:08.356Z,3.60
2018-11-20T08:46:55.868Z,3.70
2018-11-20T08:49:47.510Z,3.70
2018-11-20T08:52:34.241Z,3.70
2018-11-20T08:55:20.609Z,3.70
2018-11-20T08:58:01.822Z,3.70
2018-11-20T09:01:04.663Z,3.80
2018-11-20T09:04:04.008Z,3.70
2018-11-20T09:07:00.576Z,3.70
2018-11-20T09:10:06.451Z,3.80
2018-11-20T09:12:52.507Z,3.80
2018-11-20T09:15:46.098Z,3.90
2018-11-20T09:18:36.381Z,3.90
2018-11-20T09:21:30.667Z,3.90
2018-11-20T09:24:18.221Z,3.90
2018-11-20T09:27:07.307Z,4.00
2018-11-20T09:29:53.688Z,4.00
2018-11-20T09:32:40.156Z,4.00
2018-11-20T09:35:36.699Z,4.00
2018-11-20T09:38:18.951Z,4.00
2018-11-20T09:41:13.616Z,4.00
2018-11-20T09:44:40.186Z,4.00
2018-11-20T09:47:30.642Z,4.10
2018-11-20T09:50:36.543Z,4.10
2018-11-20T09:53:27.151Z,4.10
2018-11-20T09:56:17.314Z,4.10
2018-11-20T09:58:53.168Z,4.20
2018-11-20T10:01:43.620Z,4.20
2018-11-20T10:04:37.362Z,4.20
2018-11-20T10:07:33.788Z,4.20
2018-11-20T10:10:20.302Z,4.20
2018-11-20T10:12:58.083Z,4.30
2018-11-20T10:15:48.932Z,4.30
2018-11-20T10:18:48.311Z,4.30
2018-11-20T10:21:45.083Z,4.30
2018-11-20T10:24:45.059Z,4.30
2018-11-20T10:27:50.853Z,4.30
2018-11-20T10:30:47.020Z,4.40
2018-11-20T10:33:34.641Z,4.50
2018-11-20T10:36:31.272Z,4.50
2018-11-20T10:39:22.010Z,4.70
2018-11-20T10:42:27.997Z,4.70
2018-11-20T10:45:28.101Z,4.80
2018-11-20T10:48:21.813Z,4.80
2018-11-20T10:51:07.998Z,4.90
2018-11-20T10:53:54.207Z,4.90
2018-11-20T10:56:40.675Z,4.90
2018-11-20T10:59:34.821Z,4.80
2018-11-20T11:02:21.182Z,4.90
2018-11-20T11:05:07.576Z,5.00
2018-11-20T11:07:53.904Z,4.90
2018-11-20T11:10:34.834Z,5.00
2018-11-20T11:13:31.397Z,5.00
2018-11-20T11:16:31.042Z,5.10
2018-11-20T11:19:19.524Z,5.00
2018-11-20T11:22:22.179Z,5.00
2018-11-20T11:25:15.814Z,4.90
2018-11-20T11:28:01.894Z,4.90
2018-11-20T11:30:49.458Z,4.90
2018-11-20T11:33:42.612Z,4.80
2018-11-20T11:36:39.130Z,4.80
2018-11-20T11:39:35.206Z,4.80
2018-11-20T11:42:23.190Z,4.60
2018-11-20T11:45:13.749Z,4.70
2018-11-20T11:48:16.461Z,4.60
2018-11-20T11:51:05.498Z,4.50
2018-11-20T11:53:51.891Z,4.40
2018-11-20T11:56:37.944Z,4.40
2018-11-20T11:59:26.103Z,4.40
2018-11-20T12:05:22.114Z,4.30
2018-11-20T12:08:12.413Z,4.30
2018-11-20T12:10:58.600Z,4.20
2018-11-20T12:14:04.503Z,4.20
2018-11-20T12:16:52.107Z,4.20
2018-11-20T12:19:39.650Z,4.10
2018-11-20T12:22:42.315Z,4.10
2018-11-20T12:25:18.075Z,4.10
2018-11-20T12:28:09.175Z,4.00
2018-11-20T12:30:56.757Z,4.00
2018-11-20T12:34:02.764Z,4.00
2018-11-20T12:36:49.472Z,3.90
2018-11-20T12:39:35.739Z,3.90
2018-11-20T12:42:23.323Z,3.90
2018-11-20T12:45:27.039Z,3.90
2018-11-20T12:48:10.550Z,3.90
2018-11-20T12:51:01.126Z,3.90
2018-11-20T12:53:38.324Z,3.90
2018-11-20T12:56:33.941Z,3.80
2018-11-20T12:59:23.338Z,3.80
2018-11-20T13:02:07.942Z,3.80
2018-11-20T13:04:55.199Z,3.80
2018-11-20T13:07:41.867Z,3.80
2018-11-20T13:10:41.121Z,3.70
2018-11-20T13:13:28.937Z,3.80
2018-11-20T13:16:15.392Z,3.70
2018-11-20T13:18:54.190Z,3.80
2018-11-20T13:21:44.966Z,3.80
2018-11-20T13:24:25.268Z,3.80
2018-11-20T13:27:14.627Z,3.70
2018-11-20T13:30:10.977Z,3.70
2018-11-20T13:32:57.112Z,3.70
2018-11-20T13:35:47.499Z,3.70
2018-11-20T13:38:35.238Z,3.70
2018-11-20T13:42:01.843Z,3.70
2018-11-20T13:44:52.012Z,3.60
2018-11-20T13:47:36.802Z,3.60
2018-11-20T13:50:28.319Z,3.60
2018-11-20T13:53:14.669Z,3.60
2018-11-20T13:56:01.221Z,3.70
2018-11-20T13:58:47.744Z,3.70
2018-11-20T14:01:43.548Z,3.70
2018-11-20T14:04:29.909Z,3.70
2018-11-20T14:07:15.941Z,3.70
2018-11-20T14:10:15.647Z,3.70
2018-11-20T14:13:06.204Z,3.70
2018-11-20T14:15:52.402Z,3.70
2018-11-20T14:18:46.053Z,3.70
2018-11-20T14:21:32.076Z,3.70
2018-11-20T14:24:18.171Z,3.70
2018-11-20T14:27:09.621Z,3.70
2018-11-20T14:29:47.265Z,3.80
2018-11-20T14:32:38.881Z,3.80
2018-11-20T14:35:35.651Z,3.70
2018-11-20T14:38:21.936Z,3.80
2018-11-20T14:41:18.124Z,3.80
2018-11-20T14:44:18.020Z,3.80
2018-11-20T14:47:21.209Z,3.80
2018-11-20T14:50:07.771Z,3.80
2018-11-20T14:52:58.082Z,3.90
2018-11-20T14:55:44.197Z,3.80
2018-11-20T14:58:30.716Z,3.80
2018-11-20T15:01:36.422Z,3.80
2018-11-20T15:04:24.234Z,3.90
2018-11-20T15:07:17.770Z,3.90
2018-11-20T15:10:08.302Z,3.90
2018-11-20T15:13:01.869Z,3.90
2018-11-20T15:15:49.439Z,3.80
2018-11-20T15:18:55.224Z,3.90
2018-11-20T15:21:41.645Z,3.80
2018-11-20T15:24:41.512Z,3.90
2018-11-20T15:27:31.093Z,3.90
2018-11-20T15:30:17.929Z,3.90
2018-11-20T15:33:03.997Z,3.90
2018-11-20T15:36:13.974Z,3.80
2018-11-20T15:39:01.541Z,3.90
2018-11-20T15:41:49.199Z,3.80
2018-11-20T15:44:39.838Z,3.80
2018-11-20T15:47:21.496Z,3.90
2018-11-20T15:50:14.734Z,3.90
2018-11-20T15:53:07.995Z,3.90
2018-11-20T15:56:04.476Z,3.90
2018-11-20T15:59:04.161Z,3.80
2018-11-20T16:01:57.491Z,3.80
2018-11-20T16:05:03.575Z,3.80
2018-11-20T16:08:06.033Z,3.80
2018-11-20T16:10:44.755Z,3.80
2018-11-20T16:13:31.261Z,3.80
2018-11-20T16:16:17.350Z,3.80
2018-11-20T16:19:20.194Z,3.80
2018-11-20T16:22:09.380Z,3.80
2018-11-20T16:25:00.507Z,3.90
2018-11-20T16:28:00.276Z,3.80
2018-11-20T16:31:03.062Z,3.80
2018-11-20T16:34:03.413Z,3.90
2018-11-20T16:36:51.043Z,3.90
2018-11-20T16:39:41.399Z,3.80
2018-11-20T16:42:35.030Z,3.90
2018-11-20T16:45:34.572Z,3.90
2018-11-20T16:48:25.513Z,3.80
2018-11-20T16:51:13.136Z,3.80
2018-11-20T16:54:06.730Z,3.80
2018-11-20T16:56:54.323Z,3.90
2018-11-20T16:59:40.392Z,3.80
2018-11-20T17:02:28.400Z,3.80
2018-11-20T17:05:14.428Z,3.80
2018-11-20T17:08:00.743Z,3.90
2018-11-20T17:11:06.516Z,3.90
2018-11-20T17:13:54.330Z,3.90
2018-11-20T17:16:53.860Z,3.90
2018-11-20T17:19:39.571Z,3.80
2018-11-20T17:22:17.507Z,3.90
2018-11-20T17:25:03.859Z,3.90
2018-11-20T17:27:50.785Z,3.90
2018-11-20T17:30:47.260Z,4.00
2018-11-20T17:33:38.207Z,3.90
2018-11-20T17:36:24.377Z,3.90
2018-11-20T17:39:17.850Z,4.00
2018-11-20T17:42:01.347Z,4.00
2018-11-20T17:44:54.492Z,4.00
2018-11-20T17:47:42.102Z,4.00
2018-11-20T17:50:38.759Z,3.90
2018-11-20T17:53:35.418Z,3.90
2018-11-20T17:56:21.474Z,4.00
2018-11-20T17:59:00.923Z,4.00
2018-11-20T18:01:47.256Z,4.00
2018-11-20T18:04:36.421Z,4.00
2018-11-20T18:07:24.307Z,4.00
2018-11-20T18:10:10.688Z,4.00
2018-11-20T18:13:01.229Z,4.00
2018-11-20T18:15:47.328Z,3.90
2018-11-20T18:18:49.900Z,4.00
2018-11-20T18:21:36.324Z,3.90
2018-11-20T18:24:40.013Z,4.00
2018-11-20T18:27:29.767Z,4.00
2018-11-20T18:30:24.494Z,3.90
2018-11-20T18:33:30.604Z,3.90
2018-11-20T18:36:24.308Z,4.00
2018-11-20T18:39:10.692Z,3.90
2018-11-20T18:41:57.161Z,3.90
2018-11-20T18:44:50.990Z,3.90
2018-11-20T18:47:37.711Z,3.90
2018-11-20T18:50:31.940Z,3.90
2018-11-20T18:53:06.693Z,3.90
2018-11-20T18:56:01.071Z,3.80
2018-11-20T18:58:43.687Z,3.80
2018-11-20T19:01:36.912Z,3.80
2018-11-20T19:04:23.446Z,3.70
2018-11-20T19:07:08.588Z,3.80
2018-11-20T19:09:56.363Z,3.80
2018-11-20T19:12:42.679Z,3.80
2018-11-20T19:15:29.207Z,3.80
2018-11-20T19:18:19.756Z,3.80
2018-11-20T19:21:06.155Z,3.80
2018-11-20T19:23:52.337Z,3.80
2018-11-20T19:26:42.653Z,3.80
2018-11-20T19:29:28.913Z,3.70
2018-11-20T19:32:22.068Z,3.70
2018-11-20T19:35:09.871Z,3.70
2018-11-20T19:38:13.148Z,3.70
2018-11-20T19:41:11.406Z,3.70
2018-11-20T19:44:17.098Z,3.70
2018-11-20T19:47:12.564Z,3.60
2018-11-20T19:50:18.643Z,3.60
2018-11-20T19:53:09.221Z,3.60
2018-11-20T19:56:05.784Z,3.60
2018-11-20T19:58:52.015Z,3.60
2018-11-20T20:01:30.893Z,3.60
2018-11-20T20:04:30.426Z,3.50
2018-11-20T20:07:20.779Z,3.40
2018-11-20T20:10:16.230Z,3.40
2018-11-20T20:12:53.477Z,3.60
2018-11-20T20:15:53.786Z,3.60
2018-11-20T20:18:40.719Z,3.60
2018-11-20T20:21:26.755Z,3.60
2018-11-20T20:24:20.632Z,3.60
2018-11-20T20:27:08.917Z,3.70
2018-11-20T20:29:54.706Z,3.60
2018-11-20T20:32:50.974Z,3.60
2018-11-20T20:35:41.817Z,3.60
2018-11-20T20:38:23.449Z,3.70
2018-11-20T20:41:11.181Z,3.70
2018-11-20T20:44:16.677Z,3.70
2018-11-20T20:47:02.993Z,3.70
2018-11-20T20:49:49.014Z,3.60
2018-11-20T20:52:36.933Z,3.60
2018-11-20T20:55:23.886Z,3.60
2018-11-20T20:58:11.969Z,3.50
2018-11-20T21:00:59.602Z,3.40
2018-11-20T21:03:45.690Z,3.40
2018-11-20T21:06:29.859Z,3.40
2018-11-20T21:09:20.458Z,3.40
2018-11-20T21:12:01.239Z,3.40
2018-11-20T21:14:49.117Z,3.40
2018-11-20T21:17:42.842Z,3.40
2018-11-20T21:20:23.542Z,3.40
2018-11-20T21:23:14.159Z,3.30
2018-11-20T21:25:54.515Z,3.40
2018-11-20T21:28:40.948Z,3.30
2018-11-20T21:31:32.145Z,3.40
2018-11-20T21:34:22.485Z,3.40
2018-11-20T21:37:25.869Z,3.40
2018-11-20T21:40:25.808Z,3.30
2018-11-20T21:43:19.332Z,3.30
2018-11-20T21:46:05.802Z,3.20
2018-11-20T21:48:53.364Z,3.30
2018-11-20T21:51:44.691Z,3.20
2018-11-20T21:54:30.885Z,3.20
2018-11-20T21:57:24.191Z,3.20
2018-11-20T22:00:16.499Z,3.20
2018-11-20T22:03:07.723Z,3.20
2018-11-20T22:05:53.925Z,3.20
2018-11-20T22:08:41.902Z,3.10
2018-11-20T22:11:32.470Z,3.00
2018-11-20T22:14:20.122Z,3.10
2018-11-20T22:17:09.121Z,3.00
2018-11-20T22:19:55.499Z,3.00
2018-11-20T22:22:43.112Z,3.00
2018-11-20T22:25:30.689Z,3.00
2018-11-20T22:28:36.448Z,3.00
2018-11-20T22:31:22.627Z,3.00
2018-11-20T22:34:08.936Z,3.00
2018-11-20T22:36:55.058Z,2.90
2018-11-20T22:39:42.094Z,2.90
2018-11-20T22:42:45.120Z,2.80
2018-11-20T22:45:31.511Z,2.70
2018-11-20T22:48:21.910Z,2.80
2018-11-20T22:51:24.522Z,2.80
2018-11-20T22:54:18.336Z,2.80
2018-11-20T22:57:04.341Z,2.70
2018-11-20T22:59:40.668Z,2.70
2018-11-20T23:02:27.043Z,2.70
2018-11-20T23:05:51.448Z,2.80
2018-11-20T23:08:19.865Z,2.80
2018-11-20T23:10:48.283Z,2.70
2018-11-20T23:13:16.715Z,2.70
2018-11-20T23:15:45.583Z,2.70
2018-11-20T23:18:14.021Z,2.70
2018-11-20T23:20:42.930Z,2.70
2018-11-20T23:23:11.430Z,2.60
2018-11-20T23:25:40.190Z,2.70
2018-11-20T23:28:08.656Z,2.60
2018-11-20T23:30:37.473Z,2.60
2018-11-20T23:33:06.319Z,2.60
2018-11-20T23:35:34.870Z,2.50
2018-11-20T23:38:03.294Z,2.50
2018-11-20T23:40:31.751Z,2.40
2018-11-20T23:43:00.185Z,2.40
2018-11-20T23:45:28.636Z,2.50
2018-11-20T23:47:57.110Z,2.40
2018-11-20T23:50:25.567Z,2.30
2018-11-20T23:52:54.028Z,2.40
2018-11-20T23:55:22.505Z,2.30
2018-11-20T23:57:50.925Z,2.30
